createdAt,value
2018-04-06T00:00:51.540Z,101358.67
2018-04-06T00:01:54.064Z,101357.70
2018-04-06T00:02:56.536Z,101353.16
2018-04-06T00:03:59.050Z,101355.67
2018-04-06T00:05:01.546Z,101352.50
2018-04-06T00:06:04.031Z,101354.29
2018-04-06T00:07:06.528Z,101355.26
2018-04-06T00:08:09.047Z,101359.15
2018-04-06T00:09:11.539Z,101355.98
2018-04-06T00:10:14.046Z,101358.17
2018-04-06T00:11:16.520Z,101362.72
2018-04-06T00:12:19.042Z,101360.77
2018-04-06T00:13:21.530Z,101360.94
2018-04-06T00:14:24.031Z,101365.23
2018-04-06T00:15:26.534Z,101367.83
2018-04-06T00:16:29.055Z,101361.50
2018-04-06T00:17:31.550Z,101366.20
2018-04-06T00:18:34.096Z,101370.50
2018-04-06T00:19:36.572Z,101364.73
2018-04-06T00:20:39.075Z,101363.52
2018-04-06T00:21:41.544Z,101363.52
2018-04-06T00:22:44.050Z,101364.48
2018-04-06T00:23:46.534Z,101369.76
2018-04-06T00:24:49.041Z,101365.34
2018-04-06T00:25:51.518Z,101362.17
2018-04-06T00:26:53.993Z,101358.60
2018-04-06T00:27:56.498Z,101356.16
2018-04-06T00:28:58.982Z,101355.75
2018-04-06T00:30:01.460Z,101358.27
2018-04-06T00:31:03.953Z,101360.62
2018-04-06T00:32:06.442Z,101362.56
2018-04-06T00:33:08.933Z,101358.98
2018-04-06T00:34:11.441Z,101362.72
2018-04-06T00:35:13.945Z,101363.44
2018-04-06T00:36:16.433Z,101362.06
2018-04-06T00:37:18.937Z,101363.03
2018-04-06T00:38:21.431Z,101358.09
2018-04-06T00:39:23.923Z,101360.03
2018-04-06T00:40:26.428Z,101356.62
2018-04-06T00:41:28.921Z,101348.09
2018-04-06T00:42:31.421Z,101350.05
2018-04-06T00:43:33.924Z,101347.44
2018-04-06T00:44:36.422Z,101352.14
2018-04-06T00:45:38.892Z,101346.79
2018-04-06T00:46:41.400Z,101348.33
2018-04-06T00:47:43.954Z,101350.67
2018-04-06T00:48:46.460Z,101353.59
2018-04-06T00:49:48.936Z,101349.86
2018-04-06T00:50:51.431Z,101349.98
2018-04-06T00:51:53.926Z,101348.48
2018-04-06T00:52:56.433Z,101352.46
2018-04-06T00:53:58.940Z,101352.87
2018-04-06T00:55:02.375Z,101351.33
2018-04-06T00:56:04.863Z,101354.25
2018-04-06T00:57:07.354Z,101349.95
2018-04-06T00:58:09.860Z,101347.20
2018-04-06T00:59:12.349Z,101357.00
2018-04-06T01:00:14.884Z,101351.48
2018-04-06T01:01:17.383Z,101347.92
2018-04-06T01:02:19.859Z,101352.21
2018-04-06T01:03:22.346Z,101351.53
2018-04-06T01:04:24.913Z,101356.63
2018-04-06T01:05:27.407Z,101351.84
2018-04-06T01:06:29.894Z,101350.06
2018-04-06T01:07:32.392Z,101350.38
2018-04-06T01:08:34.877Z,101352.16
2018-04-06T01:09:37.386Z,101346.40
2018-04-06T01:10:39.882Z,101343.23
2018-04-06T01:11:42.370Z,101341.45
2018-04-06T01:12:44.877Z,101341.45
2018-04-06T01:13:47.352Z,101340.63
2018-04-06T01:14:49.858Z,101341.61
2018-04-06T01:15:52.350Z,101339.66
2018-04-06T01:16:54.859Z,101345.33
2018-04-06T01:17:57.346Z,101338.76
2018-04-06T01:18:59.837Z,101341.83
2018-04-06T01:20:02.342Z,101335.09
2018-04-06T01:21:04.829Z,101338.98
2018-04-06T01:22:07.300Z,101336.55
2018-04-06T01:23:09.802Z,101335.73
2018-04-06T01:24:12.286Z,101339.62
2018-04-06T01:25:14.791Z,101341.94
2018-04-06T01:26:17.279Z,101335.61
2018-04-06T01:27:19.784Z,101334.95
2018-04-06T01:28:22.263Z,101338.43
2018-04-06T01:29:24.777Z,101337.63
2018-04-06T01:30:27.269Z,101341.91
2018-04-06T01:31:29.767Z,101336.56
2018-04-06T01:32:32.254Z,101339.22
2018-04-06T01:33:34.777Z,101336.62
2018-04-06T01:34:37.266Z,101336.62
2018-04-06T01:35:39.762Z,101329.89
2018-04-06T01:36:42.270Z,101339.29
2018-04-06T01:37:44.755Z,101337.66
2018-04-06T01:38:47.265Z,101343.33
2018-04-06T01:39:49.750Z,101339.77
2018-04-06T01:40:52.258Z,101344.45
2018-04-06T01:41:54.776Z,101341.30
2018-04-06T01:42:57.247Z,101343.24
2018-04-06T01:43:59.760Z,101340.64
2018-04-06T01:45:02.246Z,101339.42
2018-04-06T01:46:04.775Z,101339.02
2018-04-06T01:47:07.277Z,101341.89
2018-04-06T01:48:09.775Z,101347.97
2018-04-06T01:49:12.262Z,101338.73
2018-04-06T01:50:14.767Z,101338.89
2018-04-06T01:51:17.278Z,101341.65
2018-04-06T01:52:19.785Z,101337.52
2018-04-06T01:53:22.292Z,101330.62
2018-04-06T01:54:24.786Z,101330.22
2018-04-06T01:55:27.278Z,101329.81
2018-04-06T01:56:29.798Z,101329.81
2018-04-06T01:57:32.275Z,101334.91
2018-04-06T01:58:34.781Z,101330.78
2018-04-06T01:59:37.266Z,101333.95
2018-04-06T02:00:39.778Z,101333.95
2018-04-06T02:01:42.345Z,101332.72
2018-04-06T02:02:44.820Z,101337.27
2018-04-06T02:03:47.293Z,101334.66
2018-04-06T02:04:49.815Z,101334.66
2018-04-06T02:05:52.322Z,101331.09
2018-04-06T02:06:54.849Z,101336.61
2018-04-06T02:07:57.338Z,101328.09
2018-04-06T02:08:59.840Z,101327.69
2018-04-06T02:10:02.316Z,101330.44
2018-04-06T02:11:04.803Z,101339.27
2018-04-06T02:12:07.357Z,101332.54
2018-04-06T02:13:09.848Z,101332.30
2018-04-06T02:14:12.348Z,101334.64
2018-04-06T02:15:14.834Z,101333.42
2018-04-06T02:16:17.319Z,101331.80
2018-04-06T02:17:19.837Z,101329.19
2018-04-06T02:18:22.311Z,101328.94
2018-04-06T02:19:24.788Z,101327.16
2018-04-06T02:20:27.287Z,101324.69
2018-04-06T02:21:29.760Z,101319.74
2018-04-06T02:22:32.248Z,101322.50
2018-04-06T02:23:34.716Z,101321.68
2018-04-06T02:24:37.209Z,101318.64
2018-04-06T02:25:39.715Z,101315.48
2018-04-06T02:26:42.203Z,101317.98
2018-04-06T02:27:44.716Z,101313.70
2018-04-06T02:28:47.220Z,101318.80
2018-04-06T02:29:49.729Z,101318.80
2018-04-06T02:30:52.246Z,101310.79
2018-04-06T02:31:54.721Z,101310.79
2018-04-06T02:32:57.291Z,101319.34
2018-04-06T02:33:59.785Z,101315.61
2018-04-06T02:35:02.298Z,101312.45
2018-04-06T02:36:04.773Z,101308.47
2018-04-06T02:37:07.276Z,101316.73
2018-04-06T02:38:09.790Z,101315.36
2018-04-06T02:39:12.300Z,101313.98
2018-04-06T02:40:14.777Z,101320.87
2018-04-06T02:41:17.274Z,101321.97
2018-04-06T02:42:19.781Z,101326.38
2018-04-06T02:43:22.292Z,101325.41
2018-04-06T02:44:24.783Z,101331.33
2018-04-06T02:45:27.299Z,101329.55
2018-04-06T02:46:29.787Z,101329.26
2018-04-06T02:47:32.275Z,101330.08
2018-04-06T02:48:34.776Z,101331.05
2018-04-06T02:49:37.253Z,101328.16
2018-04-06T02:50:39.724Z,101326.50
2018-04-06T02:51:42.215Z,101323.34
2018-04-06T02:52:44.723Z,101319.21
2018-04-06T02:53:47.223Z,101319.77
2018-04-06T02:54:49.708Z,101318.96
2018-04-06T02:55:52.196Z,101318.30
2018-04-06T02:56:54.757Z,101321.22
2018-04-06T02:57:57.247Z,101321.78
2018-04-06T02:58:59.774Z,101318.37
2018-04-06T03:00:02.282Z,101314.95
2018-04-06T03:01:04.767Z,101319.25
2018-04-06T03:02:07.281Z,101317.87
2018-04-06T03:03:09.813Z,101319.16
2018-04-06T03:04:12.333Z,101316.96
2018-04-06T03:05:14.816Z,101320.28
2018-04-06T03:06:17.290Z,101314.52
2018-04-06T03:07:19.797Z,101317.02
2018-04-06T03:08:22.301Z,101311.11
2018-04-06T03:09:24.825Z,101313.45
2018-04-06T03:10:27.345Z,101315.55
2018-04-06T03:11:29.830Z,101310.86
2018-04-06T03:12:32.322Z,101311.83
2018-04-06T03:13:34.815Z,101311.02
2018-04-06T03:14:37.320Z,101310.61
2018-04-06T03:15:39.829Z,101313.61
2018-04-06T03:16:42.330Z,101314.02
2018-04-06T03:17:44.819Z,101309.08
2018-04-06T03:18:47.310Z,101311.02
2018-04-06T03:19:49.800Z,101305.51
2018-04-06T03:20:52.286Z,101309.08
2018-04-06T03:21:54.764Z,101310.45
2018-04-06T03:22:57.308Z,101311.55
2018-04-06T03:23:59.794Z,101312.83
2018-04-06T03:25:02.314Z,101311.05
2018-04-06T03:26:04.803Z,101304.57
2018-04-06T03:27:07.307Z,101306.52
2018-04-06T03:28:09.810Z,101309.58
2018-04-06T03:29:12.297Z,101308.77
2018-04-06T03:30:14.787Z,101302.44
2018-04-06T03:31:17.286Z,101305.35
2018-04-06T03:32:19.764Z,101304.70
2018-04-06T03:33:22.258Z,101302.91
2018-04-06T03:34:24.746Z,101299.91
2018-04-06T03:35:27.256Z,101304.04
2018-04-06T03:36:29.766Z,101304.20
2018-04-06T03:37:32.273Z,101298.84
2018-04-06T03:38:34.780Z,101303.54
2018-04-06T03:39:37.296Z,101301.34
2018-04-06T03:40:39.801Z,101295.84
2018-04-06T03:41:42.291Z,101302.72
2018-04-06T03:42:44.778Z,101297.47
2018-04-06T03:43:47.297Z,101294.87
2018-04-06T03:44:49.798Z,101302.72
2018-04-06T03:45:52.295Z,101299.56
2018-04-06T03:46:54.783Z,101304.27
2018-04-06T03:47:57.293Z,101305.80
2018-04-06T03:48:59.801Z,101303.20
2018-04-06T03:50:02.310Z,101308.55
2018-04-06T03:51:04.848Z,101313.80
2018-04-06T03:52:07.343Z,101304.16
2018-04-06T03:53:09.834Z,101310.92
2018-04-06T03:54:12.324Z,101309.14
2018-04-06T03:55:14.830Z,101309.14
2018-04-06T03:56:17.351Z,101310.11
2018-04-06T03:57:19.834Z,101308.73
2018-04-06T03:58:22.319Z,101312.45
2018-04-06T03:59:24.802Z,101304.35
2018-04-06T04:00:27.302Z,101308.23
2018-04-06T04:01:29.798Z,101312.52
2018-04-06T04:02:32.273Z,101313.73
2018-04-06T04:03:34.762Z,101312.77
2018-04-06T04:04:37.250Z,101318.84
2018-04-06T04:05:39.739Z,101318.69
2018-04-06T04:06:42.260Z,101320.31
2018-04-06T04:07:44.748Z,101324.84
2018-04-06T04:08:47.250Z,101323.78
2018-04-06T04:09:49.747Z,101325.82
2018-04-06T04:10:52.220Z,101328.33
2018-04-06T04:11:54.790Z,101325.72
2018-04-06T04:12:57.232Z,101324.09
2018-04-06T04:13:59.737Z,101322.88
2018-04-06T04:15:02.225Z,101324.81
2018-04-06T04:16:04.718Z,101319.88
2018-04-06T04:17:07.238Z,101318.66
2018-04-06T04:18:09.734Z,101315.49
2018-04-06T04:19:12.219Z,101324.72
2018-04-06T04:20:14.711Z,101317.59
2018-04-06T04:21:17.211Z,101317.18
2018-04-06T04:22:19.739Z,101318.87
2018-04-06T04:23:22.248Z,101320.81
2018-04-06T04:24:24.716Z,101319.59
2018-04-06T04:25:27.203Z,101322.91
2018-04-06T04:26:29.698Z,101331.16
2018-04-06T04:27:32.232Z,101328.41
2018-04-06T04:28:34.727Z,101321.68
2018-04-06T04:29:37.210Z,101322.25
2018-04-06T04:30:39.699Z,101320.46
2018-04-06T04:31:42.205Z,101318.27
2018-04-06T04:32:44.700Z,101319.80
2018-04-06T04:33:47.186Z,101318.84
2018-04-06T04:34:49.678Z,101322.27
2018-04-06T04:35:52.176Z,101310.05
2018-04-06T04:36:54.677Z,101310.30
2018-04-06T04:37:57.197Z,101306.72
2018-04-06T04:38:59.710Z,101306.88
2018-04-06T04:40:02.225Z,101299.75
2018-04-06T04:41:04.720Z,101303.72
2018-04-06T04:42:07.211Z,101304.28
2018-04-06T04:43:09.695Z,101306.62
2018-04-06T04:44:12.165Z,101299.34
2018-04-06T04:45:14.680Z,101302.25
2018-04-06T04:46:17.181Z,101301.28
2018-04-06T04:47:19.675Z,101301.44
2018-04-06T04:48:22.193Z,101301.19
2018-04-06T04:49:24.686Z,101301.75
2018-04-06T04:50:27.160Z,101305.06
2018-04-06T04:51:29.647Z,101302.05
2018-04-06T04:52:32.164Z,101302.05
2018-04-06T04:53:34.643Z,101309.34
2018-04-06T04:54:37.111Z,101307.16
2018-04-06T04:55:39.652Z,101303.19
2018-04-06T04:56:42.152Z,101311.03
2018-04-06T04:57:44.648Z,101311.19
2018-04-06T04:58:47.139Z,101310.78
2018-04-06T04:59:49.627Z,101312.72
2018-04-06T05:00:52.122Z,101311.91
2018-04-06T05:01:54.614Z,101318.53
2018-04-06T05:02:57.121Z,101314.97
2018-04-06T05:03:59.624Z,101318.69
2018-04-06T05:05:02.121Z,101316.50
2018-04-06T05:06:04.611Z,101319.41
2018-04-06T05:07:07.099Z,101321.35
2018-04-06T05:08:09.602Z,101323.81
2018-04-06T05:09:12.084Z,101322.19
2018-04-06T05:10:14.556Z,101325.34
2018-04-06T05:11:17.047Z,101318.78
2018-04-06T05:12:19.538Z,101319.91
2018-04-06T05:13:22.061Z,101312.20
2018-04-06T05:14:24.546Z,101312.77
2018-04-06T05:15:27.058Z,101310.58
2018-04-06T05:16:29.544Z,101312.11
2018-04-06T05:17:32.039Z,101308.95
2018-04-06T05:18:34.554Z,101312.27
2018-04-06T05:19:37.046Z,101315.02
2018-04-06T05:20:39.570Z,101314.61
2018-04-06T05:21:42.062Z,101320.12
2018-04-06T05:22:44.536Z,101319.15
2018-04-06T05:23:47.062Z,101312.98
2018-04-06T05:24:49.546Z,101319.30
2018-04-06T05:25:52.048Z,101315.33
2018-04-06T05:26:54.546Z,101322.20
2018-04-06T05:27:57.039Z,101328.69
2018-04-06T05:28:59.546Z,101326.09
2018-04-06T05:30:02.038Z,101327.61
2018-04-06T05:31:04.516Z,101323.89
2018-04-06T05:32:07.002Z,101328.18
2018-04-06T05:33:09.487Z,101326.95
2018-04-06T05:34:11.986Z,101326.95
2018-04-06T05:35:14.478Z,101325.58
2018-04-06T05:36:16.966Z,101329.86
2018-04-06T05:37:19.459Z,101331.23
2018-04-06T05:38:21.963Z,101324.52
2018-04-06T05:39:24.449Z,101332.36
2018-04-06T05:40:27.078Z,101317.79
2018-04-06T05:41:29.555Z,101320.70
2018-04-06T05:42:32.061Z,101318.06
2018-04-06T05:43:34.551Z,101317.12
2018-04-06T05:44:37.037Z,101314.50
2018-04-06T05:45:39.522Z,101316.98
2018-04-06T05:46:42.042Z,101313.00
2018-04-06T05:47:44.530Z,101312.56
2018-04-06T05:48:47.031Z,101309.69
2018-04-06T05:49:49.542Z,101312.69
2018-04-06T05:50:52.028Z,101314.88
2018-04-06T05:51:54.500Z,101311.98
2018-04-06T05:52:56.972Z,101314.58
2018-04-06T05:53:59.476Z,101313.20
2018-04-06T05:55:02.001Z,101314.16
2018-04-06T05:56:04.586Z,101312.38
2018-04-06T05:57:07.077Z,101309.38
2018-04-06T05:58:09.584Z,101308.41
2018-04-06T05:59:12.079Z,101304.28
2018-04-06T06:00:14.590Z,101304.69
2018-04-06T06:01:17.116Z,101300.09
2018-04-06T06:02:19.607Z,101301.47
2018-04-06T06:03:22.091Z,101300.66
2018-04-06T06:04:24.583Z,101299.07
2018-04-06T06:05:27.087Z,101296.48
2018-04-06T06:06:29.582Z,101286.58
2018-04-06T06:07:32.078Z,101292.52
2018-04-06T06:08:34.579Z,101290.47
2018-04-06T06:09:37.101Z,101290.95
2018-04-06T06:10:39.600Z,101293.05
2018-04-06T06:11:42.133Z,101297.06
2018-04-06T06:12:44.619Z,101291.77
2018-04-06T06:13:47.153Z,101296.77
2018-04-06T06:14:49.632Z,101304.09
2018-04-06T06:15:52.143Z,101301.45
2018-04-06T06:16:54.648Z,101298.48
2018-04-06T06:17:57.142Z,101302.39
2018-04-06T06:18:59.653Z,101295.31
2018-04-06T06:20:02.144Z,101302.02
2018-04-06T06:21:04.670Z,101301.52
2018-04-06T06:22:07.180Z,101300.78
2018-04-06T06:23:09.693Z,101297.84
2018-04-06T06:24:12.202Z,101299.45
2018-04-06T06:25:14.695Z,101299.23
2018-04-06T06:26:17.228Z,101306.05
2018-04-06T06:27:19.820Z,101307.23
2018-04-06T06:28:22.431Z,101295.52
2018-04-06T06:29:24.941Z,101291.39
2018-04-06T06:30:27.431Z,101289.80
2018-04-06T06:31:30.063Z,101298.18
2018-04-06T06:32:32.574Z,101293.14
2018-04-06T06:33:35.105Z,101296.23
2018-04-06T06:34:37.615Z,101292.48
2018-04-06T06:35:40.099Z,101293.31
2018-04-06T06:36:42.620Z,101291.16
2018-04-06T06:37:45.112Z,101295.13
2018-04-06T06:38:47.639Z,101290.46
2018-04-06T06:39:50.118Z,101296.05
2018-04-06T06:40:52.610Z,101290.42
2018-04-06T06:41:55.135Z,101294.80
2018-04-06T06:42:57.663Z,101294.20
2018-04-06T06:44:00.150Z,101294.72
2018-04-06T06:45:02.652Z,101298.94
2018-04-06T06:46:05.184Z,101303.12
2018-04-06T06:47:07.699Z,101300.66
2018-04-06T06:48:10.227Z,101297.14
2018-04-06T06:49:12.750Z,101294.57
2018-04-06T06:50:15.260Z,101300.87
2018-04-06T06:51:17.742Z,101298.45
2018-04-06T06:52:20.239Z,101296.22
2018-04-06T06:53:22.733Z,101299.03
2018-04-06T06:54:25.254Z,101299.83
2018-04-06T06:55:27.757Z,101294.70
2018-04-06T06:56:30.264Z,101296.03
2018-04-06T06:57:32.764Z,101301.89
2018-04-06T06:58:35.259Z,101299.11
2018-04-06T06:59:37.815Z,101297.84
2018-04-06T07:00:40.314Z,101294.67
2018-04-06T07:01:42.806Z,101289.13
2018-04-06T07:02:45.338Z,101284.31
2018-04-06T07:03:47.854Z,101284.27
2018-04-06T07:04:50.337Z,101279.99
2018-04-06T07:05:52.818Z,101277.91
2018-04-06T07:06:55.344Z,101268.96
2018-04-06T07:07:57.863Z,101264.54
2018-04-06T07:09:00.354Z,101261.48
2018-04-06T07:10:02.867Z,101252.98
2018-04-06T07:11:05.372Z,101257.77
2018-04-06T07:12:07.874Z,101251.15
2018-04-06T07:13:10.398Z,101244.13
2018-04-06T07:14:12.916Z,101243.98
2018-04-06T07:15:15.410Z,101237.37
2018-04-06T07:16:17.910Z,101242.56
2018-04-06T07:17:20.406Z,101240.47
2018-04-06T07:18:22.953Z,101235.80
2018-04-06T07:19:25.433Z,101227.96
2018-04-06T07:20:27.924Z,101235.08
2018-04-06T07:21:30.401Z,101220.79
2018-04-06T07:22:32.896Z,101222.01
2018-04-06T07:23:35.420Z,101212.24
2018-04-06T07:24:37.962Z,101213.05
2018-04-06T07:25:40.445Z,101219.21
2018-04-06T07:26:42.942Z,101220.03
2018-04-06T07:27:45.448Z,101219.91
2018-04-06T07:28:47.963Z,101210.84
2018-04-06T07:29:50.477Z,101214.81
2018-04-06T07:30:53.015Z,101214.66
2018-04-06T07:31:55.505Z,101214.11
2018-04-06T07:32:57.982Z,101212.17
2018-04-06T07:34:00.509Z,101205.45
2018-04-06T07:35:03.002Z,101216.17
2018-04-06T07:36:05.491Z,101207.92
2018-04-06T07:37:07.964Z,101207.38
2018-04-06T07:38:10.450Z,101213.13
2018-04-06T07:39:12.967Z,101211.19
2018-04-06T07:40:15.447Z,101201.57
2018-04-06T07:41:17.987Z,101215.30
2018-04-06T07:42:20.461Z,101213.78
2018-04-06T07:43:22.958Z,101219.13
2018-04-06T07:44:25.457Z,101215.41
2018-04-06T07:45:27.985Z,101208.80
2018-04-06T07:46:30.468Z,101211.54
2018-04-06T07:47:32.988Z,101213.32
2018-04-06T07:48:35.464Z,101207.83
2018-04-06T07:49:37.971Z,101207.27
2018-04-06T07:50:40.472Z,101208.08
2018-04-06T07:51:42.993Z,101206.96
2018-04-06T07:52:45.507Z,101205.59
2018-04-06T07:53:48.024Z,101199.53
2018-04-06T07:54:50.534Z,101213.12
2018-04-06T07:55:53.019Z,101207.22
2018-04-06T07:56:55.539Z,101202.13
2018-04-06T07:57:58.002Z,101207.47
2018-04-06T07:59:00.501Z,101206.50
2018-04-06T08:00:03.037Z,101210.06
2018-04-06T08:01:05.513Z,101205.79
2018-04-06T08:02:07.991Z,101203.86
2018-04-06T08:03:10.496Z,101207.98
2018-04-06T08:04:12.990Z,101204.14
2018-04-06T08:05:15.498Z,101198.23
2018-04-06T08:06:18.014Z,101196.71
2018-04-06T08:07:20.513Z,101198.09
2018-04-06T08:08:23.026Z,101195.74
2018-04-06T08:09:25.532Z,101204.24
2018-04-06T08:10:28.071Z,101197.38
2018-04-06T08:11:30.555Z,101192.84
2018-04-06T08:12:33.062Z,101196.00
2018-04-06T08:13:35.540Z,101194.72
2018-04-06T08:14:38.045Z,101199.66
2018-04-06T08:15:40.565Z,101199.91
2018-04-06T08:16:43.094Z,101200.47
2018-04-06T08:17:45.568Z,101200.17
2018-04-06T08:18:48.095Z,101200.83
2018-04-06T08:19:50.582Z,101194.05
2018-04-06T08:20:53.086Z,101200.47
2018-04-06T08:21:55.557Z,101196.29
2018-04-06T08:22:58.130Z,101202.33
2018-04-06T08:24:00.641Z,101200.08
2018-04-06T08:25:03.124Z,101198.96
2018-04-06T08:26:05.635Z,101206.90
2018-04-06T08:27:08.138Z,101196.41
2018-04-06T08:28:10.611Z,101198.85
2018-04-06T08:29:13.088Z,101203.23
2018-04-06T08:30:15.588Z,101208.67
2018-04-06T08:31:18.084Z,101196.43
2018-04-06T08:32:20.570Z,101203.81
2018-04-06T08:33:23.074Z,101200.50
2018-04-06T08:34:25.546Z,101201.56
2018-04-06T08:35:28.051Z,101199.32
2018-04-06T08:36:30.566Z,101206.45
2018-04-06T08:37:33.039Z,101191.02
2018-04-06T08:38:35.531Z,101198.30
2018-04-06T08:39:38.022Z,101191.11
2018-04-06T08:40:40.533Z,101197.42
2018-04-06T08:41:43.034Z,101199.05
2018-04-06T08:42:45.530Z,101198.48
2018-04-06T08:43:48.033Z,101192.02
2018-04-06T08:44:50.509Z,101193.65
2018-04-06T08:45:53.041Z,101189.93
2018-04-06T08:46:55.534Z,101192.97
2018-04-06T08:47:58.052Z,101183.06
2018-04-06T08:49:00.539Z,101184.31
2018-04-06T08:50:03.045Z,101189.25
2018-04-06T08:51:05.533Z,101186.75
2018-04-06T08:52:08.009Z,101194.03
2018-04-06T08:53:10.518Z,101190.88
2018-04-06T08:54:13.249Z,101193.06
2018-04-06T08:55:15.743Z,101188.78
2018-04-06T08:56:18.247Z,101184.50
2018-04-06T08:57:20.757Z,101184.91
2018-04-06T08:58:23.272Z,101190.66
2018-04-06T08:59:25.762Z,101181.28
2018-04-06T09:00:28.250Z,101187.19
2018-04-06T09:01:30.769Z,101183.48
2018-04-06T09:02:33.261Z,101183.88
2018-04-06T09:03:35.777Z,101183.32
2018-04-06T09:04:38.292Z,101182.91
2018-04-06T09:05:40.762Z,101180.98
2018-04-06T09:06:43.268Z,101183.16
2018-04-06T09:07:45.780Z,101178.48
2018-04-06T09:08:48.290Z,101180.26
2018-04-06T09:09:50.782Z,101182.45
2018-04-06T09:10:53.348Z,101190.55
2018-04-06T09:11:55.900Z,101182.70
2018-04-06T09:12:58.397Z,101174.60
2018-04-06T09:14:00.897Z,101181.48
2018-04-06T09:15:03.391Z,101179.55
2018-04-06T09:16:05.903Z,101175.83
2018-04-06T09:17:08.392Z,101175.67
2018-04-06T09:18:10.895Z,101175.27
2018-04-06T09:19:14.152Z,101173.89
2018-04-06T09:20:17.067Z,101170.58
2018-04-06T09:21:19.646Z,101173.73
2018-04-06T09:22:22.457Z,101167.11
2018-04-06T09:23:24.991Z,101173.42
2018-04-06T09:24:27.561Z,101164.61
2018-04-06T09:25:30.067Z,101172.30
2018-04-06T09:26:32.561Z,101170.02
2018-04-06T09:27:35.090Z,101164.77
2018-04-06T09:28:37.597Z,101161.05
2018-04-06T09:29:40.087Z,101159.92
2018-04-06T09:30:43.271Z,101158.42
2018-04-06T09:31:45.865Z,101152.61
2018-04-06T09:32:48.780Z,101149.86
2018-04-06T09:33:51.416Z,101152.77
2018-04-06T09:34:54.011Z,101147.52
2018-04-06T09:35:56.552Z,101142.98
2018-04-06T09:36:59.102Z,101143.95
2018-04-06T09:38:01.638Z,101147.92
2018-04-06T09:39:04.157Z,101137.08
2018-04-06T09:40:06.661Z,101139.11
2018-04-06T09:41:09.144Z,101137.73
2018-04-06T09:42:11.655Z,101134.57
2018-04-06T09:43:14.165Z,101128.26
2018-04-06T09:44:16.650Z,101128.26
2018-04-06T09:45:19.125Z,101128.41
2018-04-06T09:46:21.626Z,101128.26
2018-04-06T09:47:24.093Z,101122.19
2018-04-06T09:48:26.585Z,101125.10
2018-04-06T09:49:29.062Z,101133.05
2018-04-06T09:50:31.544Z,101128.35
2018-04-06T09:51:34.020Z,101125.29
2018-04-06T09:52:36.494Z,101122.13
2018-04-06T09:53:38.985Z,101126.10
2018-04-06T09:54:41.461Z,101123.76
2018-04-06T09:55:43.984Z,101109.59
2018-04-06T09:56:46.460Z,101114.44
2018-04-06T09:57:48.936Z,101115.41
2018-04-06T09:58:51.460Z,101109.34
2018-04-06T09:59:53.944Z,101116.62
2018-04-06T10:00:59.260Z,101114.28
2018-04-06T10:02:18.540Z,101105.88
2018-04-06T10:03:21.016Z,101103.28
2018-04-06T10:04:23.500Z,101112.50
2018-04-06T10:05:25.981Z,101105.63
2018-04-06T10:06:28.456Z,101114.69
2018-04-06T10:07:30.944Z,101109.19
2018-04-06T10:08:33.429Z,101101.75
2018-04-06T10:09:35.912Z,101108.06
2018-04-06T10:10:38.392Z,101105.31
2018-04-06T10:11:40.882Z,101105.16
2018-04-06T10:12:43.384Z,101109.69
2018-04-06T10:13:45.872Z,101105.97
2018-04-06T10:14:48.381Z,101107.75
2018-04-06T10:15:50.859Z,101109.94
2018-04-06T10:16:53.332Z,101098.78
2018-04-06T10:17:55.806Z,101090.13
2018-04-06T10:18:58.284Z,101086.97
2018-04-06T10:20:00.780Z,101093.19
2018-04-06T10:21:03.248Z,101091.81
2018-04-06T10:22:05.721Z,101093.59
2018-04-06T10:23:08.196Z,101094.56
2018-04-06T10:24:10.666Z,101095.78
2018-04-06T10:25:13.170Z,101087.53
2018-04-06T10:26:15.642Z,101094.25
2018-04-06T10:27:18.136Z,101090.94
2018-04-06T10:28:20.603Z,101089.31
2018-04-06T10:29:23.165Z,101090.13
2018-04-06T10:30:25.656Z,101084.71
2018-04-06T10:31:28.132Z,101090.78
2018-04-06T10:32:30.632Z,101091.75
2018-04-06T10:33:33.116Z,101086.66
2018-04-06T10:34:35.588Z,101088.28
2018-04-06T10:35:38.172Z,101085.68
2018-04-06T10:36:40.644Z,101082.52
2018-04-06T10:37:43.125Z,101092.97
2018-04-06T10:38:45.602Z,101084.96
2018-04-06T10:39:48.076Z,101090.46
2018-04-06T10:40:50.573Z,101086.34
2018-04-06T10:41:53.050Z,101092.24
2018-04-06T10:42:55.516Z,101087.15
2018-04-06T10:43:57.996Z,101086.34
2018-04-06T10:45:00.483Z,101082.20
2018-04-06T10:46:02.982Z,101079.30
2018-04-06T10:47:05.455Z,101077.11
2018-04-06T10:48:07.943Z,101082.05
2018-04-06T10:49:10.420Z,101077.67
2018-04-06T10:50:12.919Z,101073.14
2018-04-06T10:51:15.412Z,101067.14
2018-04-06T10:52:17.886Z,101058.64
2018-04-06T10:53:20.364Z,101071.59
2018-04-06T10:54:22.856Z,101061.80
2018-04-06T10:55:25.335Z,101067.08
2018-04-06T10:56:27.829Z,101066.17
2018-04-06T10:57:30.295Z,101061.31
2018-04-06T10:58:32.808Z,101056.69
2018-04-06T10:59:35.265Z,101057.13
2018-04-06T11:00:37.745Z,101053.39
2018-04-06T11:01:40.288Z,101058.36
2018-04-06T11:02:42.769Z,101056.08
2018-04-06T11:03:45.253Z,101049.20
2018-04-06T11:04:47.731Z,101045.53
2018-04-06T11:05:50.202Z,101045.73
2018-04-06T11:06:52.696Z,101046.63
2018-04-06T11:07:55.178Z,101037.90
2018-04-06T11:08:57.653Z,101033.77
2018-04-06T11:10:00.125Z,101043.58
2018-04-06T11:11:02.611Z,101038.00
2018-04-06T11:12:05.092Z,101039.55
2018-04-06T11:13:07.682Z,101039.30
2018-04-06T11:14:10.321Z,101036.55
2018-04-06T11:15:13.174Z,101038.16
2018-04-06T11:16:16.662Z,101032.64
2018-04-06T11:17:20.648Z,101030.72
2018-04-06T11:18:23.365Z,101030.31
2018-04-06T11:19:25.882Z,101030.76
2018-04-06T11:20:28.357Z,101030.09
2018-04-06T11:21:31.771Z,101027.23
2018-04-06T11:22:34.241Z,101025.37
2018-04-06T11:23:36.818Z,101026.73
2018-04-06T11:24:39.289Z,101018.55
2018-04-06T11:25:41.764Z,101021.38
2018-04-06T11:26:44.478Z,101017.00
2018-04-06T11:27:47.812Z,101021.88
2018-04-06T11:28:50.292Z,101024.73
2018-04-06T11:29:52.768Z,101015.88
2018-04-06T11:30:55.247Z,101011.99
2018-04-06T11:31:57.731Z,101021.78
2018-04-06T11:33:00.208Z,101016.13
2018-04-06T11:34:02.718Z,101017.33
2018-04-06T11:35:05.172Z,101007.24
2018-04-06T11:36:07.645Z,101013.39
2018-04-06T11:37:10.132Z,101014.37
2018-04-06T11:38:12.600Z,101009.98
2018-04-06T11:39:15.072Z,101009.22
2018-04-06T11:40:17.688Z,101012.19
2018-04-06T11:41:20.177Z,101012.10
2018-04-06T11:42:22.649Z,101008.93
2018-04-06T11:43:25.169Z,101002.59
2018-04-06T11:44:27.652Z,101001.95
2018-04-06T11:45:30.119Z,100999.69
2018-04-06T11:46:32.616Z,101000.50
2018-04-06T11:47:35.101Z,100995.81
2018-04-06T11:48:37.581Z,100995.50
2018-04-06T11:49:40.052Z,100989.57
2018-04-06T11:50:42.520Z,100984.50
2018-04-06T11:51:45.116Z,100971.64
2018-04-06T11:52:47.588Z,100987.11
2018-04-06T11:53:50.084Z,100982.73